sensor_id;sensor_type;location;lat;lon;timestamp;pressure;altitude;pressure_sealevel;temperature;humidity
52797;BME280;38666;43.348;12.584;2023-04-29T06:53:09;95722.31;;;16.19;33.90
52797;BME280;38666;43.348;12.584;2023-04-29T06:55:35;95709.94;;;16.11;33.33
52797;BME280;38666;43.348;12.584;2023-04-29T06:58:00;95711.88;;;16.40;33.56
52797;BME280;38666;43.348;12.584;2023-04-29T07:00:28;95712.81;;;16.89;32.37
52797;BME280;38666;43.348;12.584;2023-04-29T07:02:54;95706.88;;;17.04;30.72
52797;BME280;38666;43.348;12.584;2023-04-29T07:05:20;95706.84;;;17.43;30.93
52797;BME280;38666;43.348;12.584;2023-04-29T07:07:46;95709.16;;;17.44;29.76
52797;BME280;38666;43.348;12.584;2023-04-29T07:10:11;95708.94;;;17.26;30.04
52797;BME280;38666;43.348;12.584;2023-04-29T07:12:37;95707.72;;;17.40;29.82
52797;BME280;38666;43.348;12.584;2023-04-29T07:15:03;95701.00;;;17.28;29.84
52797;BME280;38666;43.348;12.584;2023-04-29T07:17:29;95710.41;;;17.30;29.77
52797;BME280;38666;43.348;12.584;2023-04-29T07:19:55;95706.97;;;17.39;30.21
52797;BME280;38666;43.348;12.584;2023-04-29T07:22:21;95704.69;;;17.60;29.58
52797;BME280;38666;43.348;12.584;2023-04-29T07:24:46;95697.94;;;17.97;29.20
52797;BME280;38666;43.348;12.584;2023-04-29T07:27:12;95699.59;;;17.72;29.40
52797;BME280;38666;43.348;12.584;2023-04-29T07:29:37;95690.97;;;17.21;30.00
52797;BME280;38666;43.348;12.584;2023-04-29T07:32:04;95694.59;;;17.31;30.56
52797;BME280;38666;43.348;12.584;2023-04-29T07:34:30;95687.88;;;17.67;29.80
52797;BME280;38666;43.348;12.584;2023-04-29T07:36:55;95688.41;;;17.75;30.13
52797;BME280;38666;43.348;12.584;2023-04-29T07:39:21;95703.22;;;18.26;30.67
52797;BME280;38666;43.348;12.584;2023-04-29T07:41:47;95702.72;;;18.19;30.20
52797;BME280;38666;43.348;12.584;2023-04-29T07:44:12;95704.53;;;17.41;31.67
52797;BME280;38666;43.348;12.584;2023-04-29T07:46:37;95701.50;;;17.49;31.77
52797;BME280;38666;43.348;12.584;2023-04-29T07:49:03;95708.28;;;16.95;32.64
52797;BME280;38666;43.348;12.584;2023-04-29T07:51:30;95704.88;;;16.91;32.66
52797;BME280;38666;43.348;12.584;2023-04-29T07:53:57;95715.38;;;17.23;32.17
52797;BME280;38666;43.348;12.584;2023-04-29T07:56:23;95716.03;;;17.27;32.55
52797;BME280;38666;43.348;12.584;2023-04-29T07:58:51;95718.41;;;17.86;31.63
52797;BME280;38666;43.348;12.584;2023-04-29T08:01:20;95719.03;;;18.26;30.42
52797;BME280;38666;43.348;12.584;2023-04-29T08:03:47;95714.38;;;18.68;30.76
52797;BME280;38666;43.348;12.584;2023-04-29T08:06:14;95722.06;;;18.73;31.10
52797;BME280;38666;43.348;12.584;2023-04-29T08:08:41;95720.66;;;18.68;31.60
52797;BME280;38666;43.348;12.584;2023-04-29T08:11:13;95717.13;;;18.68;31.08
52797;BME280;38666;43.348;12.584;2023-04-29T08:13:40;95718.38;;;18.22;31.90
52797;BME280;38666;43.348;12.584;2023-04-29T08:16:05;95724.56;;;18.26;31.97
52797;BME280;38666;43.348;12.584;2023-04-29T08:18:31;95728.81;;;18.40;32.18
52797;BME280;38666;43.348;12.584;2023-04-29T08:20:56;95729.44;;;19.08;31.69
52797;BME280;38666;43.348;12.584;2023-04-29T08:23:21;95735.38;;;18.97;31.09
52797;BME280;38666;43.348;12.584;2023-04-29T08:25:47;95728.81;;;19.54;30.96
52797;BME280;38666;43.348;12.584;2023-04-29T08:28:16;95731.34;;;20.18;29.47
52797;BME280;38666;43.348;12.584;2023-04-29T08:30:41;95737.75;;;20.52;28.85
52797;BME280;38666;43.348;12.584;2023-04-29T08:33:07;95732.44;;;20.83;27.51
52797;BME280;38666;43.348;12.584;2023-04-29T08:35:33;95738.88;;;20.98;27.88
52797;BME280;38666;43.348;12.584;2023-04-29T08:38:02;95736.50;;;20.63;26.94
52797;BME280;38666;43.348;12.584;2023-04-29T08:40:29;95737.47;;;19.84;28.72
52797;BME280;38666;43.348;12.584;2023-04-29T08:42:56;95728.34;;;19.37;28.77
52797;BME280;38666;43.348;12.584;2023-04-29T08:45:23;95719.56;;;18.97;30.38
52797;BME280;38666;43.348;12.584;2023-04-29T08:47:49;95719.03;;;19.12;30.48
52797;BME280;38666;43.348;12.584;2023-04-29T08:50:15;95716.13;;;18.84;30.41
52797;BME280;38666;43.348;12.584;2023-04-29T08:52:41;95700.97;;;18.98;30.69
52797;BME280;38666;43.348;12.584;2023-04-29T08:55:07;95712.47;;;19.37;31.37
52797;BME280;38666;43.348;12.584;2023-04-29T08:57:35;95718.22;;;18.70;31.79
52797;BME280;38666;43.348;12.584;2023-04-29T09:00:08;95719.16;;;18.45;32.40
52797;BME280;38666;43.348;12.584;2023-04-29T09:02:44;95716.53;;;18.73;33.37
52797;BME280;38666;43.348;12.584;2023-04-29T09:05:11;95719.16;;;19.08;32.75
52797;BME280;38666;43.348;12.584;2023-04-29T09:07:38;95724.31;;;18.97;32.84
52797;BME280;38666;43.348;12.584;2023-04-29T09:10:06;95719.47;;;19.99;30.55
52797;BME280;38666;43.348;12.584;2023-04-29T09:12:32;95728.69;;;19.77;30.73
52797;BME280;38666;43.348;12.584;2023-04-29T09:14:58;95721.78;;;20.00;31.04
52797;BME280;38666;43.348;12.584;2023-04-29T09:17:43;95726.47;;;19.34;31.13
52797;BME280;38666;43.348;12.584;2023-04-29T09:22:51;95716.50;;;19.55;31.19
52797;BME280;38666;43.348;12.584;2023-04-29T09:25:17;95722.66;;;19.59;30.97
52797;BME280;38666;43.348;12.584;2023-04-29T09:27:42;95724.50;;;19.44;31.28
52797;BME280;38666;43.348;12.584;2023-04-29T09:30:08;95726.03;;;19.45;31.77
52797;BME280;38666;43.348;12.584;2023-04-29T09:32:34;95732.88;;;18.80;33.86
52797;BME280;38666;43.348;12.584;2023-04-29T09:35:26;95733.47;;;19.16;33.53
52797;BME280;38666;43.348;12.584;2023-04-29T09:37:53;95732.00;;;19.24;33.43
52797;BME280;38666;43.348;12.584;2023-04-29T09:40:33;95725.09;;;19.39;33.62
52797;BME280;38666;43.348;12.584;2023-04-29T09:42:59;95724.03;;;19.45;32.82
52797;BME280;38666;43.348;12.584;2023-04-29T09:45:54;95732.47;;;19.32;32.65
52797;BME280;38666;43.348;12.584;2023-04-29T09:48:19;95725.03;;;19.20;33.59
52797;BME280;38666;43.348;12.584;2023-04-29T09:50:58;95720.94;;;19.02;33.57
52797;BME280;38666;43.348;12.584;2023-04-29T09:53:29;95721.16;;;18.76;34.46
52797;BME280;38666;43.348;12.584;2023-04-29T09:56:00;95729.03;;;18.10;34.95
52797;BME280;38666;43.348;12.584;2023-04-29T09:58:31;95737.81;;;18.31;34.92
52797;BME280;38666;43.348;12.584;2023-04-29T10:01:01;95731.25;;;18.38;34.72
52797;BME280;38666;43.348;12.584;2023-04-29T10:03:37;95739.50;;;17.93;36.03
52797;BME280;38666;43.348;12.584;2023-04-29T10:06:05;95736.56;;;17.74;35.76
52797;BME280;38666;43.348;12.584;2023-04-29T10:08:31;95731.56;;;17.47;36.49
52797;BME280;38666;43.348;12.584;2023-04-29T10:11:03;95729.69;;;17.43;36.59
52797;BME280;38666;43.348;12.584;2023-04-29T10:13:30;95735.97;;;17.44;37.46
52797;BME280;38666;43.348;12.584;2023-04-29T10:18:48;95736.31;;;17.33;36.50
52797;BME280;38666;43.348;12.584;2023-04-29T10:21:17;95722.97;;;17.31;37.20
52797;BME280;38666;43.348;12.584;2023-04-29T10:23:46;95722.53;;;17.33;39.27
52797;BME280;38666;43.348;12.584;2023-04-29T10:26:14;95715.69;;;17.73;39.44
52797;BME280;38666;43.348;12.584;2023-04-29T10:28:42;95720.53;;;17.33;39.83
52797;BME280;38666;43.348;12.584;2023-04-29T10:31:09;95724.94;;;17.44;38.38
52797;BME280;38666;43.348;12.584;2023-04-29T10:33:39;95725.75;;;17.67;38.44
52797;BME280;38666;43.348;12.584;2023-04-29T10:36:08;95719.69;;;17.24;38.85
52797;BME280;38666;43.348;12.584;2023-04-29T10:38:45;95719.75;;;17.33;38.29
52797;BME280;38666;43.348;12.584;2023-04-29T10:41:22;95708.84;;;17.29;38.58
52797;BME280;38666;43.348;12.584;2023-04-29T10:43:53;95718.66;;;17.79;37.38
52797;BME280;38666;43.348;12.584;2023-04-29T10:46:23;95715.88;;;17.79;37.03
52797;BME280;38666;43.348;12.584;2023-04-29T10:48:56;95717.16;;;17.65;37.54
52797;BME280;38666;43.348;12.584;2023-04-29T10:51:32;95706.50;;;17.54;37.62
52797;BME280;38666;43.348;12.584;2023-04-29T10:56:39;95701.78;;;17.41;37.72
52797;BME280;38666;43.348;12.584;2023-04-29T10:59:08;95703.75;;;17.99;36.84
52797;BME280;38666;43.348;12.584;2023-04-29T11:04:07;95697.78;;;17.42;37.19
52797;BME280;38666;43.348;12.584;2023-04-29T11:09:25;95695.19;;;17.97;36.54
52797;BME280;38666;43.348;12.584;2023-04-29T11:14:42;95697.44;;;17.40;37.10
52797;BME280;38666;43.348;12.584;2023-04-29T11:17:12;95700.44;;;17.81;36.54
52797;BME280;38666;43.348;12.584;2023-04-29T11:19:41;95708.31;;;18.28;36.61
52797;BME280;38666;43.348;12.584;2023-04-29T11:22:10;95697.53;;;18.52;35.44
52797;BME280;38666;43.348;12.584;2023-04-29T11:24:36;95700.47;;;17.68;36.69
52797;BME280;38666;43.348;12.584;2023-04-29T11:27:02;95703.44;;;17.26;37.30
52797;BME280;38666;43.348;12.584;2023-04-29T11:29:31;95700.38;;;17.11;37.29
52797;BME280;38666;43.348;12.584;2023-04-29T11:31:58;95701.09;;;17.50;37.92
52797;BME280;38666;43.348;12.584;2023-04-29T11:34:24;95716.63;;;17.57;37.09
52797;BME280;38666;43.348;12.584;2023-04-29T11:36:50;95713.53;;;17.55;36.83
52797;BME280;38666;43.348;12.584;2023-04-29T11:39:16;95722.19;;;17.44;37.28
52797;BME280;38666;43.348;12.584;2023-04-29T11:41:41;95723.34;;;17.69;37.09
52797;BME280;38666;43.348;12.584;2023-04-29T11:44:07;95722.16;;;17.57;38.17
52797;BME280;38666;43.348;12.584;2023-04-29T11:46:34;95717.91;;;17.17;39.69
52797;BME280;38666;43.348;12.584;2023-04-29T11:49:00;95721.22;;;17.12;39.68
52797;BME280;38666;43.348;12.584;2023-04-29T11:51:26;95727.28;;;16.80;41.58
52797;BME280;38666;43.348;12.584;2023-04-29T11:53:53;95732.66;;;16.97;42.46
52797;BME280;38666;43.348;12.584;2023-04-29T11:56:21;95733.91;;;17.09;42.85
52797;BME280;38666;43.348;12.584;2023-04-29T11:58:52;95739.94;;;16.78;43.57
52797;BME280;38666;43.348;12.584;2023-04-29T12:01:19;95741.94;;;16.77;45.30
52797;BME280;38666;43.348;12.584;2023-04-29T12:03:47;95752.31;;;16.73;47.76
52797;BME280;38666;43.348;12.584;2023-04-29T12:06:13;95757.72;;;16.77;49.15
52797;BME280;38666;43.348;12.584;2023-04-29T12:08:39;95757.59;;;16.67;47.70
52797;BME280;38666;43.348;12.584;2023-04-29T12:11:06;95767.34;;;16.42;48.95
52797;BME280;38666;43.348;12.584;2023-04-29T12:13:33;95766.00;;;16.34;48.84
52797;BME280;38666;43.348;12.584;2023-04-29T12:16:01;95752.75;;;16.29;53.17
52797;BME280;38666;43.348;12.584;2023-04-29T12:18:27;95752.44;;;15.80;53.70
52797;BME280;38666;43.348;12.584;2023-04-29T12:20:53;95756.84;;;15.44;57.23
52797;BME280;38666;43.348;12.584;2023-04-29T12:23:22;95743.69;;;15.35;55.92
52797;BME280;38666;43.348;12.584;2023-04-29T12:25:54;95737.75;;;15.37;50.68
52797;BME280;38666;43.348;12.584;2023-04-29T12:28:20;95727.13;;;15.22;56.15
52797;BME280;38666;43.348;12.584;2023-04-29T12:30:47;95727.53;;;15.37;55.06
52797;BME280;38666;43.348;12.584;2023-04-29T12:33:24;95716.00;;;15.59;58.80
52797;BME280;38666;43.348;12.584;2023-04-29T12:35:50;95720.16;;;15.81;58.12
52797;BME280;38666;43.348;12.584;2023-04-29T12:38:28;95713.25;;;16.06;57.41
52797;BME280;38666;43.348;12.584;2023-04-29T12:40:55;95707.75;;;16.06;60.55
52797;BME280;38666;43.348;12.584;2023-04-29T12:43:27;95702.41;;;15.98;61.31
52797;BME280;38666;43.348;12.584;2023-04-29T12:45:59;95704.47;;;15.94;61.91
52797;BME280;38666;43.348;12.584;2023-04-29T12:48:29;95699.13;;;16.04;60.17
52797;BME280;38666;43.348;12.584;2023-04-29T12:50:55;95697.06;;;15.91;61.45
52797;BME280;38666;43.348;12.584;2023-04-29T12:53:22;95687.22;;;15.77;60.84
52797;BME280;38666;43.348;12.584;2023-04-29T12:55:48;95688.38;;;15.63;61.00
52797;BME280;38666;43.348;12.584;2023-04-29T12:58:13;95699.47;;;15.59;62.26
52797;BME280;38666;43.348;12.584;2023-04-29T13:00:39;95692.22;;;15.65;59.99
52797;BME280;38666;43.348;12.584;2023-04-29T13:03:04;95687.94;;;15.64;59.96
52797;BME280;38666;43.348;12.584;2023-04-29T13:05:31;95686.16;;;15.58;60.10
52797;BME280;38666;43.348;12.584;2023-04-29T13:07:56;95679.19;;;15.53;59.87
52797;BME280;38666;43.348;12.584;2023-04-29T13:10:22;95677.03;;;15.44;59.36
52797;BME280;38666;43.348;12.584;2023-04-29T13:12:47;95676.50;;;15.66;57.00
52797;BME280;38666;43.348;12.584;2023-04-29T13:15:13;95673.22;;;15.71;56.34
52797;BME280;38666;43.348;12.584;2023-04-29T13:17:40;95672.63;;;15.63;55.48
52797;BME280;38666;43.348;12.584;2023-04-29T13:20:06;95667.59;;;15.45;58.96
52797;BME280;38666;43.348;12.584;2023-04-29T13:22:32;95664.88;;;15.28;59.78
52797;BME280;38666;43.348;12.584;2023-04-29T13:24:58;95659.09;;;15.23;60.40
52797;BME280;38666;43.348;12.584;2023-04-29T13:27:23;95657.97;;;15.37;61.01
52797;BME280;38666;43.348;12.584;2023-04-29T13:29:49;95662.97;;;15.25;60.55
52797;BME280;38666;43.348;12.584;2023-04-29T13:32:15;95662.97;;;15.09;57.49
52797;BME280;38666;43.348;12.584;2023-04-29T13:34:40;95652.81;;;15.39;60.09
52797;BME280;38666;43.348;12.584;2023-04-29T13:37:08;95652.16;;;15.18;59.64
52797;BME280;38666;43.348;12.584;2023-04-29T13:39:33;95656.19;;;15.30;62.17
52797;BME280;38666;43.348;12.584;2023-04-29T13:42:00;95643.81;;;15.22;62.00
52797;BME280;38666;43.348;12.584;2023-04-29T13:44:25;95640.63;;;15.23;61.04
52797;BME280;38666;43.348;12.584;2023-04-29T13:46:51;95638.34;;;15.51;59.31
52797;BME280;38666;43.348;12.584;2023-04-29T13:49:16;95624.41;;;15.42;59.93
52797;BME280;38666;43.348;12.584;2023-04-29T13:51:42;95634.94;;;15.31;61.33
52797;BME280;38666;43.348;12.584;2023-04-29T13:54:07;95630.06;;;15.22;62.62
52797;BME280;38666;43.348;12.584;2023-04-29T13:56:33;95630.50;;;15.03;63.80
52797;BME280;38666;43.348;12.584;2023-04-29T13:58:58;95631.63;;;14.89;63.56
52797;BME280;38666;43.348;12.584;2023-04-29T14:01:23;95632.75;;;14.92;64.92
52797;BME280;38666;43.348;12.584;2023-04-29T14:03:49;95627.94;;;15.13;64.61
52797;BME280;38666;43.348;12.584;2023-04-29T14:06:14;95626.84;;;15.40;61.83
52797;BME280;38666;43.348;12.584;2023-04-29T14:08:40;95617.38;;;15.71;61.95
52797;BME280;38666;43.348;12.584;2023-04-29T14:11:06;95619.44;;;15.96;60.61
52797;BME280;38666;43.348;12.584;2023-04-29T14:13:31;95623.38;;;16.25;59.05
52797;BME280;38666;43.348;12.584;2023-04-29T14:15:57;95621.50;;;16.22;60.88
52797;BME280;38666;43.348;12.584;2023-04-29T14:18:23;95628.13;;;16.51;56.41
52797;BME280;38666;43.348;12.584;2023-04-29T14:20:49;95618.38;;;16.85;54.22
52797;BME280;38666;43.348;12.584;2023-04-29T14:23:14;95607.88;;;17.06;53.76
52797;BME280;38666;43.348;12.584;2023-04-29T14:25:40;95613.84;;;17.17;53.25
52797;BME280;38666;43.348;12.584;2023-04-29T14:28:05;95612.81;;;17.24;51.78
52797;BME280;38666;43.348;12.584;2023-04-29T14:30:31;95609.59;;;17.61;52.18
52797;BME280;38666;43.348;12.584;2023-04-29T14:32:56;95608.88;;;17.48;50.89
52797;BME280;38666;43.348;12.584;2023-04-29T14:35:22;95607.50;;;17.30;50.36
52797;BME280;38666;43.348;12.584;2023-04-29T14:37:47;95608.50;;;17.81;49.78
52797;BME280;38666;43.348;12.584;2023-04-29T14:40:14;95605.31;;;17.25;51.01
52797;BME280;38666;43.348;12.584;2023-04-29T14:42:40;95603.03;;;17.10;51.93
52797;BME280;38666;43.348;12.584;2023-04-29T14:45:06;95594.63;;;17.01;52.90
52797;BME280;38666;43.348;12.584;2023-04-29T14:47:32;95590.22;;;17.16;49.94
52797;BME280;38666;43.348;12.584;2023-04-29T14:49:57;95589.13;;;17.72;48.89
52797;BME280;38666;43.348;12.584;2023-04-29T14:52:23;95585.84;;;17.64;49.50
52797;BME280;38666;43.348;12.584;2023-04-29T14:54:48;95583.13;;;17.51;51.29
52797;BME280;38666;43.348;12.584;2023-04-29T14:57:14;95582.66;;;17.97;51.12
52797;BME280;38666;43.348;12.584;2023-04-29T14:59:39;95576.41;;;17.52;50.68
52797;BME280;38666;43.348;12.584;2023-04-29T15:02:05;95580.28;;;18.09;49.65
52797;BME280;38666;43.348;12.584;2023-04-29T15:04:31;95568.72;;;18.74;47.34
52797;BME280;38666;43.348;12.584;2023-04-29T15:06:56;95567.84;;;18.36;48.24
52797;BME280;38666;43.348;12.584;2023-04-29T15:09:22;95561.31;;;18.61;47.22
52797;BME280;38666;43.348;12.584;2023-04-29T15:11:49;95566.06;;;18.61;47.08
52797;BME280;38666;43.348;12.584;2023-04-29T15:14:14;95554.22;;;19.39;46.33
52797;BME280;38666;43.348;12.584;2023-04-29T15:16:40;95556.97;;;21.37;41.81
52797;BME280;38666;43.348;12.584;2023-04-29T15:19:05;95545.47;;;21.44;41.27
52797;BME280;38666;43.348;12.584;2023-04-29T15:21:31;95547.06;;;21.75;40.88
52797;BME280;38666;43.348;12.584;2023-04-29T15:23:56;95546.44;;;21.41;41.30
52797;BME280;38666;43.348;12.584;2023-04-29T15:26:22;95544.75;;;21.19;42.21
52797;BME280;38666;43.348;12.584;2023-04-29T15:28:47;95549.66;;;20.07;43.83
52797;BME280;38666;43.348;12.584;2023-04-29T15:31:13;95543.00;;;19.33;46.83
52797;BME280;38666;43.348;12.584;2023-04-29T15:33:38;95554.00;;;19.80;44.83
52797;BME280;38666;43.348;12.584;2023-04-29T15:36:05;95544.78;;;19.74;45.43
52797;BME280;38666;43.348;12.584;2023-04-29T15:38:31;95547.53;;;18.80;47.44
52797;BME280;38666;43.348;12.584;2023-04-29T15:40:57;95542.34;;;18.00;49.03
52797;BME280;38666;43.348;12.584;2023-04-29T15:43:28;95548.47;;;18.04;49.57
52797;BME280;38666;43.348;12.584;2023-04-29T15:45:54;95542.22;;;18.45;50.69
52797;BME280;38666;43.348;12.584;2023-04-29T15:48:20;95533.63;;;18.43;50.17
52797;BME280;38666;43.348;12.584;2023-04-29T15:50:46;95531.88;;;18.96;47.69
52797;BME280;38666;43.348;12.584;2023-04-29T15:53:11;95538.94;;;18.87;48.65
52797;BME280;38666;43.348;12.584;2023-04-29T15:55:37;95538.69;;;19.13;48.36
52797;BME280;38666;43.348;12.584;2023-04-29T15:58:02;95531.13;;;19.05;48.17
52797;BME280;38666;43.348;12.584;2023-04-29T16:00:27;95525.41;;;18.99;48.56
52797;BME280;38666;43.348;12.584;2023-04-29T16:02:53;95534.97;;;18.06;50.71
52797;BME280;38666;43.348;12.584;2023-04-29T16:05:19;95537.88;;;17.71;52.31
52797;BME280;38666;43.348;12.584;2023-04-29T16:07:44;95536.91;;;17.64;52.57
52797;BME280;38666;43.348;12.584;2023-04-29T16:10:10;95532.81;;;17.47;53.86
52797;BME280;38666;43.348;12.584;2023-04-29T16:12:35;95534.41;;;17.57;53.60
52797;BME280;38666;43.348;12.584;2023-04-29T16:15:02;95533.66;;;17.34;55.13
52797;BME280;38666;43.348;12.584;2023-04-29T16:17:30;95521.84;;;17.88;53.33
52797;BME280;38666;43.348;12.584;2023-04-29T16:19:56;95529.88;;;18.27;52.80
52797;BME280;38666;43.348;12.584;2023-04-29T16:22:21;95528.94;;;18.21;53.19
52797;BME280;38666;43.348;12.584;2023-04-29T16:24:47;95526.41;;;18.13;52.41
52797;BME280;38666;43.348;12.584;2023-04-29T16:27:12;95524.06;;;18.02;54.01
52797;BME280;38666;43.348;12.584;2023-04-29T16:29:38;95520.38;;;17.96;53.86
52797;BME280;38666;43.348;12.584;2023-04-29T16:32:04;95530.47;;;18.22;53.15
52797;BME280;38666;43.348;12.584;2023-04-29T16:34:29;95515.03;;;18.11;54.15
52797;BME280;38666;43.348;12.584;2023-04-29T16:36:54;95521.94;;;18.38;52.88
52797;BME280;38666;43.348;12.584;2023-04-29T16:39:20;95510.53;;;18.27;53.12
52797;BME280;38666;43.348;12.584;2023-04-29T16:41:45;95515.50;;;18.10;52.24
52797;BME280;38666;43.348;12.584;2023-04-29T16:44:11;95516.88;;;18.05;52.95
52797;BME280;38666;43.348;12.584;2023-04-29T16:46:36;95515.31;;;18.04;53.93
52797;BME280;38666;43.348;12.584;2023-04-29T16:49:02;95521.28;;;18.25;53.02
52797;BME280;38666;43.348;12.584;2023-04-29T16:51:28;95523.13;;;18.28;53.14
52797;BME280;38666;43.348;12.584;2023-04-29T16:53:53;95521.34;;;17.80;52.68
52797;BME280;38666;43.348;12.584;2023-04-29T16:56:19;95522.25;;;18.09;52.40
52797;BME280;38666;43.348;12.584;2023-04-29T16:58:46;95514.72;;;18.41;51.22
52797;BME280;38666;43.348;12.584;2023-04-29T17:01:12;95522.00;;;18.57;50.85
52797;BME280;38666;43.348;12.584;2023-04-29T17:03:38;95515.56;;;18.70;50.62
52797;BME280;38666;43.348;12.584;2023-04-29T17:06:03;95515.84;;;18.62;50.46
52797;BME280;38666;43.348;12.584;2023-04-29T17:08:30;95521.91;;;18.29;51.70
52797;BME280;38666;43.348;12.584;2023-04-29T17:10:56;95514.56;;;18.03;53.03
52797;BME280;38666;43.348;12.584;2023-04-29T17:13:21;95510.91;;;17.75;54.12
52797;BME280;38666;43.348;12.584;2023-04-29T17:15:47;95515.56;;;17.55;55.29
52797;BME280;38666;43.348;12.584;2023-04-29T17:18:12;95527.59;;;17.26;55.62
52797;BME280;38666;43.348;12.584;2023-04-29T17:20:38;95509.94;;;16.88;56.98
52797;BME280;38666;43.348;12.584;2023-04-29T17:23:04;95515.47;;;16.40;60.08
52797;BME280;38666;43.348;12.584;2023-04-29T17:25:29;95520.44;;;16.06;62.60
52797;BME280;38666;43.348;12.584;2023-04-29T17:27:55;95519.00;;;16.01;64.03
52797;BME280;38666;43.348;12.584;2023-04-29T17:30:20;95517.53;;;15.96;65.26
52797;BME280;38666;43.348;12.584;2023-04-29T17:32:46;95518.03;;;16.08;65.81
52797;BME280;38666;43.348;12.584;2023-04-29T17:35:13;95519.31;;;15.90;66.93
52797;BME280;38666;43.348;12.584;2023-04-29T17:37:39;95518.66;;;15.86;67.39
52797;BME280;38666;43.348;12.584;2023-04-29T17:40:06;95515.56;;;15.84;67.72
52797;BME280;38666;43.348;12.584;2023-04-29T17:42:32;95507.94;;;15.75;68.36
52797;BME280;38666;43.348;12.584;2023-04-29T17:44:57;95506.19;;;15.68;68.32
52797;BME280;38666;43.348;12.584;2023-04-29T17:47:23;95515.97;;;15.69;68.13
52797;BME280;38666;43.348;12.584;2023-04-29T17:49:48;95520.72;;;15.69;68.55
52797;BME280;38666;43.348;12.584;2023-04-29T17:52:15;95521.69;;;15.62;69.56
52797;BME280;38666;43.348;12.584;2023-04-29T17:54:45;95520.34;;;15.53;70.62
52797;BME280;38666;43.348;12.584;2023-04-29T17:57:10;95516.38;;;15.55;70.71
52797;BME280;38666;43.348;12.584;2023-04-29T17:59:35;95515.72;;;15.50;70.95
52797;BME280;38666;43.348;12.584;2023-04-29T18:02:01;95516.25;;;15.45;71.23
52797;BME280;38666;43.348;12.584;2023-04-29T18:04:26;95507.13;;;15.48;71.35
52797;BME280;38666;43.348;12.584;2023-04-29T18:06:52;95496.31;;;15.41;71.77
52797;BME280;38666;43.348;12.584;2023-04-29T18:09:17;95494.09;;;15.36;72.39
52797;BME280;38666;43.348;12.584;2023-04-29T18:11:43;95489.38;;;15.36;72.04
52797;BME280;38666;43.348;12.584;2023-04-29T18:14:09;95489.72;;;15.38;71.65
52797;BME280;38666;43.348;12.584;2023-04-29T18:16:35;95497.31;;;15.34;71.30
52797;BME280;38666;43.348;12.584;2023-04-29T18:19:00;95495.19;;;15.25;71.80
52797;BME280;38666;43.348;12.584;2023-04-29T18:21:26;95504.63;;;15.24;71.69
52797;BME280;38666;43.348;12.584;2023-04-29T18:23:55;95505.34;;;15.12;72.90
52797;BME280;38666;43.348;12.584;2023-04-29T18:26:21;95504.00;;;15.03;74.01
52797;BME280;38666;43.348;12.584;2023-04-29T18:28:47;95503.53;;;14.92;74.48
52797;BME280;38666;43.348;12.584;2023-04-29T18:31:17;95505.59;;;14.88;73.53
52797;BME280;38666;43.348;12.584;2023-04-29T18:33:43;95510.47;;;14.97;72.57
52797;BME280;38666;43.348;12.584;2023-04-29T18:36:09;95515.53;;;14.98;72.42
52797;BME280;38666;43.348;12.584;2023-04-29T18:38:35;95516.50;;;14.91;73.16
52797;BME280;38666;43.348;12.584;2023-04-29T18:41:01;95515.81;;;14.87;74.29
52797;BME280;38666;43.348;12.584;2023-04-29T18:43:26;95521.41;;;14.84;74.45
52797;BME280;38666;43.348;12.584;2023-04-29T18:45:58;95518.31;;;14.82;75.15
52797;BME280;38666;43.348;12.584;2023-04-29T18:48:23;95522.25;;;14.80;75.24
